Time;durP1;ratioP1;P1;durP2;ratioP2;P2;SDS_P1;SDS_P2;PMS_P1;PMS_P2;Temp;Humidity;BMP_temperature;BMP_pressure;BME280_temperature;BME280_humidity;BME280_pressure;Samples;Min_cycle;Max_cycle;Signal;HPM_P1;HPM_P2
2022/02/21 00:01:29;;;;;;;1.77;0.70;;;;;;;;;;5072631;28;20052;-77
2022/02/21 00:03:57;;;;;;;1.88;0.70;;;;;;;;;;5074567;28;20407;-79
2022/02/21 00:06:25;;;;;;;1.73;0.73;;;;;;;;;;5075046;28;20072;-79
2022/02/21 00:08:52;;;;;;;2.05;0.73;;;;;;;;;;5070362;28;20048;-78
2022/02/21 00:11:19;;;;;;;1.80;0.70;;;;;;;;;;5074743;28;20400;-78
2022/02/21 00:13:46;;;;;;;1.52;0.70;;;;;;;;;;5075452;28;20072;-79
2022/02/21 00:16:12;;;;;;;1.27;0.60;;;;;;;;;;5076970;28;20550;-80
2022/02/21 00:18:39;;;;;;;2.35;0.70;;;;;;;;;;5076675;28;20126;-78
2022/02/21 00:21:07;;;;;;;2.30;1.13;;;;;;;;;;5076970;28;20045;-79
2022/02/21 00:23:35;;;;;;;1.30;0.60;;;;;;;;;;5076289;28;20052;-79
2022/02/21 00:26:02;;;;;;;1.70;1.08;;;;;;;;;;5076120;28;20040;-78
2022/02/21 00:28:28;;;;;;;1.27;0.55;;;;;;;;;;5076519;28;20052;-80
2022/02/21 00:30:55;;;;;;;0.90;0.52;;;;;;;;;;5077173;28;20049;-78
2022/02/21 00:33:22;;;;;;;1.52;0.55;;;;;;;;;;5075796;28;20048;-78
2022/02/21 00:35:49;;;;;;;0.90;0.60;;;;;;;;;;5075900;28;20044;-80
2022/02/21 00:38:16;;;;;;;1.35;0.70;;;;;;;;;;5075388;28;20048;-78
2022/02/21 00:40:44;;;;;;;1.50;0.50;;;;;;;;;;5076541;28;20045;-78
2022/02/21 00:43:11;;;;;;;1.40;0.70;;;;;;;;;;5079756;28;20446;-78
2022/02/21 00:45:37;;;;;;;1.52;0.65;;;;;;;;;;5080891;28;20053;-79
2022/02/21 00:48:05;;;;;;;2.40;0.60;;;;;;;;;;5080028;28;20102;-79
2022/02/21 00:50:31;;;;;;;3.15;0.70;;;;;;;;;;5080362;28;20049;-79
2022/02/21 00:52:58;;;;;;;2.38;0.80;;;;;;;;;;5080584;28;20541;-79
2022/02/21 00:55:25;;;;;;;1.58;0.85;;;;;;;;;;5072851;28;20102;-79
2022/02/21 00:57:53;;;;;;;0.52;0.50;;;;;;;;;;5059815;28;20049;-79
2022/02/21 01:00:21;;;;;;;0.90;0.60;;;;;;;;;;5059504;28;20045;-79
2022/02/21 01:02:47;;;;;;;1.52;0.60;;;;;;;;;;5060615;28;20079;-79
2022/02/21 01:05:14;;;;;;;1.67;0.60;;;;;;;;;;5060604;28;20049;-79
2022/02/21 01:07:41;;;;;;;2.08;0.70;;;;;;;;;;5058980;28;20045;-78
2022/02/21 01:10:09;;;;;;;0.88;0.60;;;;;;;;;;5059398;28;20056;-78
2022/02/21 01:12:35;;;;;;;1.65;0.60;;;;;;;;;;5059662;28;20053;-78
2022/02/21 01:15:05;;;;;;;4.13;0.85;;;;;;;;;;5059617;28;20488;-80
2022/02/21 01:17:32;;;;;;;1.80;0.70;;;;;;;;;;5058836;28;20049;-79
2022/02/21 01:20:03;;;;;;;2.80;0.80;;;;;;;;;;5059203;28;20831;-78
2022/02/21 01:22:30;;;;;;;2.10;0.80;;;;;;;;;;5061425;28;20477;-79
2022/02/21 01:24:56;;;;;;;1.25;0.60;;;;;;;;;;5059262;28;20463;-79
2022/02/21 01:27:23;;;;;;;1.20;0.68;;;;;;;;;;5059516;28;20064;-78
2022/02/21 01:29:50;;;;;;;2.10;0.85;;;;;;;;;;5058928;28;20053;-78
2022/02/21 01:32:18;;;;;;;2.50;0.90;;;;;;;;;;5059425;28;20053;-79
2022/02/21 01:34:45;;;;;;;1.85;0.90;;;;;;;;;;5059161;28;20041;-79
2022/02/21 01:37:12;;;;;;;3.03;1.23;;;;;;;;;;5058980;28;20071;-78
2022/02/21 01:39:39;;;;;;;2.65;0.82;;;;;;;;;;5059198;28;20075;-78
2022/02/21 01:42:06;;;;;;;2.55;0.70;;;;;;;;;;5058898;28;20041;-78
2022/02/21 01:44:38;;;;;;;2.55;0.90;;;;;;;;;;5057359;28;20132;-78
2022/02/21 01:47:07;;;;;;;1.08;0.68;;;;;;;;;;5058071;28;20111;-79
2022/02/21 01:49:36;;;;;;;3.70;1.08;;;;;;;;;;5058351;28;20132;-79
2022/02/21 01:52:04;;;;;;;1.75;0.70;;;;;;;;;;5058547;28;20503;-79
2022/02/21 01:54:32;;;;;;;6.18;1.10;;;;;;;;;;5069911;28;20063;-79
2022/02/21 01:56:59;;;;;;;3.42;0.88;;;;;;;;;;5078565;28;20496;-78
2022/02/21 01:59:26;;;;;;;2.00;0.90;;;;;;;;;;5076986;28;20090;-78
2022/02/21 02:01:53;;;;;;;3.58;0.82;;;;;;;;;;5075896;28;20048;-78
2022/02/21 02:04:21;;;;;;;2.67;0.60;;;;;;;;;;5076936;28;20654;-77
2022/02/21 02:06:49;;;;;;;1.98;1.10;;;;;;;;;;5076781;28;20048;-78
2022/02/21 02:09:17;;;;;;;2.35;0.70;;;;;;;;;;5077503;28;20048;-78
2022/02/21 02:11:44;;;;;;;1.83;0.60;;;;;;;;;;5079015;28;20044;-78
2022/02/21 02:14:27;;;;;;;4.45;1.00;;;;;;;;;;5079590;28;20478;-78
2022/02/21 02:16:54;;;;;;;3.22;0.90;;;;;;;;;;5078378;28;20048;-78
2022/02/21 02:19:20;;;;;;;3.33;0.90;;;;;;;;;;5079675;28;20049;-78
2022/02/21 02:21:55;;;;;;;3.05;1.00;;;;;;;;;;5079118;28;20048;-77
2022/02/21 02:24:24;;;;;;;2.42;0.80;;;;;;;;;;5078974;28;20075;-77
2022/02/21 02:26:53;;;;;;;1.65;0.70;;;;;;;;;;5076287;28;20040;-77
2022/02/21 02:29:20;;;;;;;2.53;0.68;;;;;;;;;;5077095;28;20072;-78
2022/02/21 02:31:47;;;;;;;2.33;0.73;;;;;;;;;;5077278;28;20090;-78
2022/02/21 02:34:14;;;;;;;2.17;1.17;;;;;;;;;;5077452;28;20044;-77
2022/02/21 02:36:40;;;;;;;2.88;0.90;;;;;;;;;;5074408;28;20079;-78
2022/02/21 02:39:07;;;;;;;1.50;0.68;;;;;;;;;;5075194;28;20093;-78
2022/02/21 02:41:36;;;;;;;3.67;0.90;;;;;;;;;;5081885;28;20048;-77
2022/02/21 02:44:02;;;;;;;1.08;0.55;;;;;;;;;;5087506;28;20044;-77
2022/02/21 02:46:29;;;;;;;2.17;0.90;;;;;;;;;;5082953;28;20057;-78
2022/02/21 02:48:56;;;;;;;1.27;0.75;;;;;;;;;;5078957;28;20045;-78
2022/02/21 02:51:23;;;;;;;1.75;0.73;;;;;;;;;;5077988;28;20102;-77
2022/02/21 02:53:50;;;;;;;2.67;0.60;;;;;;;;;;5076042;28;20048;-78
2022/02/21 02:56:17;;;;;;;1.35;0.60;;;;;;;;;;5075978;28;20075;-77
2022/02/21 02:58:45;;;;;;;2.47;0.70;;;;;;;;;;5075421;28;20044;-78
2022/02/21 03:01:12;;;;;;;3.40;0.77;;;;;;;;;;5077208;28;20440;-78
2022/02/21 03:03:39;;;;;;;2.20;0.80;;;;;;;;;;5077013;28;20048;-78
2022/02/21 03:06:06;;;;;;;4.05;0.98;;;;;;;;;;5077229;28;20041;-78
2022/02/21 03:08:32;;;;;;;2.42;0.60;;;;;;;;;;5078559;28;20040;-79
2022/02/21 03:10:59;;;;;;;2.67;0.90;;;;;;;;;;5075179;28;20049;-77
2022/02/21 03:13:26;;;;;;;3.75;0.60;;;;;;;;;;5077331;28;20052;-78
2022/02/21 03:15:54;;;;;;;2.20;0.80;;;;;;;;;;5075542;28;20055;-78
2022/02/21 03:18:21;;;;;;;3.53;0.70;;;;;;;;;;5078383;28;20045;-78
2022/02/21 03:20:48;;;;;;;2.67;0.65;;;;;;;;;;5075921;28;20052;-78
2022/02/21 03:23:16;;;;;;;1.75;0.80;;;;;;;;;;5078532;28;20103;-78
2022/02/21 03:25:43;;;;;;;3.60;1.10;;;;;;;;;;5075869;28;20423;-79
2022/02/21 03:28:10;;;;;;;2.70;0.80;;;;;;;;;;5077758;28;20068;-77
2022/02/21 03:30:37;;;;;;;2.95;0.80;;;;;;;;;;5075291;28;20055;-78
2022/02/21 03:33:05;;;;;;;2.00;0.88;;;;;;;;;;5077968;28;20475;-78
2022/02/21 03:35:32;;;;;;;2.65;1.05;;;;;;;;;;5087604;28;20044;-78
2022/02/21 03:37:59;;;;;;;2.25;0.70;;;;;;;;;;5087180;28;20506;-77
2022/02/21 03:40:26;;;;;;;4.63;0.80;;;;;;;;;;5086357;28;20051;-77
2022/02/21 03:42:53;;;;;;;2.72;0.80;;;;;;;;;;5086548;28;20098;-77
2022/02/21 03:45:22;;;;;;;3.47;0.80;;;;;;;;;;5087349;28;20048;-77
2022/02/21 03:47:49;;;;;;;3.03;0.80;;;;;;;;;;5075336;28;20413;-78
2022/02/21 03:50:17;;;;;;;2.83;0.82;;;;;;;;;;5078583;28;20105;-78
2022/02/21 03:52:44;;;;;;;2.85;0.80;;;;;;;;;;5077326;28;20053;-78
2022/02/21 03:55:11;;;;;;;3.47;0.80;;;;;;;;;;5078257;28;20041;-78
2022/02/21 03:57:38;;;;;;;2.38;0.77;;;;;;;;;;5077852;28;20135;-79
2022/02/21 04:00:10;;;;;;;3.17;0.80;;;;;;;;;;5077398;28;20044;-78
2022/02/21 04:02:37;;;;;;;2.35;0.50;;;;;;;;;;5065661;28;20051;-78
2022/02/21 04:05:05;;;;;;;2.03;0.70;;;;;;;;;;5087165;28;20043;-77
2022/02/21 04:07:34;;;;;;;1.73;0.80;;;;;;;;;;5086750;28;20079;-78
2022/02/21 04:10:00;;;;;;;1.75;0.70;;;;;;;;;;5087090;28;20059;-77
2022/02/21 04:12:27;;;;;;;2.30;0.60;;;;;;;;;;5079133;28;20060;-78
2022/02/21 04:14:54;;;;;;;3.40;0.90;;;;;;;;;;5077936;28;20048;-78
2022/02/21 04:17:22;;;;;;;2.33;0.70;;;;;;;;;;5080252;28;20053;-78
2022/02/21 04:19:49;;;;;;;1.98;0.68;;;;;;;;;;5081546;28;20513;-78
2022/02/21 04:22:15;;;;;;;3.53;0.80;;;;;;;;;;5078857;28;20075;-78
2022/02/21 04:24:44;;;;;;;2.05;0.60;;;;;;;;;;5078635;28;20044;-78
2022/02/21 04:27:10;;;;;;;0.80;0.55;;;;;;;;;;5078846;28;20074;-79
2022/02/21 04:29:39;;;;;;;1.65;0.57;;;;;;;;;;5080975;28;20060;-78
2022/02/21 04:32:07;;;;;;;3.05;0.70;;;;;;;;;;5081618;28;20112;-76
2022/02/21 04:34:34;;;;;;;2.10;0.70;;;;;;;;;;5081251;28;20052;-78
2022/02/21 04:37:01;;;;;;;3.15;0.70;;;;;;;;;;5079955;28;20040;-76
2022/02/21 04:39:27;;;;;;;2.25;0.80;;;;;;;;;;5076842;28;20094;-77
2022/02/21 04:41:55;;;;;;;1.38;0.60;;;;;;;;;;5076718;28;20102;-77
2022/02/21 04:44:22;;;;;;;2.08;0.63;;;;;;;;;;5076658;28;20587;-77
2022/02/21 04:46:49;;;;;;;2.75;0.68;;;;;;;;;;5077030;28;20457;-77
2022/02/21 04:49:16;;;;;;;1.73;0.70;;;;;;;;;;5078184;28;20048;-78
2022/02/21 04:51:43;;;;;;;1.77;0.70;;;;;;;;;;5078264;28;20487;-78
2022/02/21 04:54:09;;;;;;;2.55;0.60;;;;;;;;;;5078216;28;20070;-78
2022/02/21 04:56:37;;;;;;;1.60;0.60;;;;;;;;;;5076980;28;20048;-78
2022/02/21 04:59:05;;;;;;;1.48;0.52;;;;;;;;;;5077526;28;20105;-78
2022/02/21 05:01:31;;;;;;;1.77;0.52;;;;;;;;;;5076752;28;20048;-78
2022/02/21 05:03:58;;;;;;;1.05;0.50;;;;;;;;;;5077523;28;20041;-78
2022/02/21 05:06:25;;;;;;;1.15;0.50;;;;;;;;;;5077816;28;20052;-78
2022/02/21 05:08:52;;;;;;;1.90;0.93;;;;;;;;;;5078080;28;20142;-78
2022/02/21 05:11:18;;;;;;;2.20;0.77;;;;;;;;;;5078867;28;20114;-78
2022/02/21 05:13:45;;;;;;;1.75;0.60;;;;;;;;;;5079775;28;20600;-79
2022/02/21 05:16:14;;;;;;;2.15;0.60;;;;;;;;;;5079830;28;20466;-79
2022/02/21 05:18:41;;;;;;;3.00;0.70;;;;;;;;;;5079441;28;20211;-79
2022/02/21 05:21:08;;;;;;;1.98;0.63;;;;;;;;;;5079475;28;20163;-79
2022/02/21 05:23:35;;;;;;;1.48;0.50;;;;;;;;;;5078583;28;20098;-77
2022/02/21 05:26:01;;;;;;;1.25;0.80;;;;;;;;;;5079527;28;20106;-79
2022/02/21 05:28:28;;;;;;;1.13;0.50;;;;;;;;;;5084506;28;20048;-77
2022/02/21 05:30:55;;;;;;;1.77;0.50;;;;;;;;;;5086554;28;20045;-79
2022/02/21 05:33:23;;;;;;;1.85;0.60;;;;;;;;;;5086460;28;20048;-79
2022/02/21 05:35:50;;;;;;;1.60;0.70;;;;;;;;;;5085560;28;20547;-80
2022/02/21 05:38:17;;;;;;;1.10;0.60;;;;;;;;;;5085190;28;20573;-78
2022/02/21 05:40:44;;;;;;;1.10;0.50;;;;;;;;;;5085156;28;20075;-78
2022/02/21 05:43:10;;;;;;;0.85;0.47;;;;;;;;;;5086983;28;20604;-79
2022/02/21 05:45:37;;;;;;;1.95;0.70;;;;;;;;;;5087938;28;20086;-76
2022/02/21 05:48:05;;;;;;;2.35;0.80;;;;;;;;;;5092868;28;20435;-78
2022/02/21 05:50:33;;;;;;;1.67;0.60;;;;;;;;;;5091861;28;20045;-79
2022/02/21 05:52:59;;;;;;;0.75;0.55;;;;;;;;;;5089689;28;20573;-79
2022/02/21 05:55:26;;;;;;;2.45;1.15;;;;;;;;;;5089805;28;20048;-79
2022/02/21 05:57:57;;;;;;;7.50;0.68;;;;;;;;;;5088008;28;20041;-77
2022/02/21 06:00:24;;;;;;;2.85;0.50;;;;;;;;;;5086736;28;20049;-80
2022/02/21 06:02:51;;;;;;;1.02;0.38;;;;;;;;;;5087509;28;20060;-79
2022/02/21 06:05:18;;;;;;;1.27;0.30;;;;;;;;;;5083912;28;20049;-77
2022/02/21 06:07:46;;;;;;;5.70;0.52;;;;;;;;;;5085991;28;20074;-79
2022/02/21 06:10:12;;;;;;;1.85;0.40;;;;;;;;;;5087602;28;20114;-78
2022/02/21 06:12:39;;;;;;;1.40;0.57;;;;;;;;;;5086833;28;20044;-77
2022/02/21 06:15:08;;;;;;;1.20;0.50;;;;;;;;;;5085055;28;20044;-78
2022/02/21 06:17:35;;;;;;;3.00;0.93;;;;;;;;;;5086907;28;20084;-79
2022/02/21 06:20:02;;;;;;;2.00;0.60;;;;;;;;;;5084358;28;20481;-78
2022/02/21 06:22:29;;;;;;;2.25;0.70;;;;;;;;;;5085401;28;20055;-78
2022/02/21 06:24:57;;;;;;;1.55;0.57;;;;;;;;;;5086600;28;20078;-79
2022/02/21 06:27:24;;;;;;;2.78;0.80;;;;;;;;;;5084921;28;20109;-80
2022/02/21 06:29:51;;;;;;;3.03;0.93;;;;;;;;;;5083533;28;20041;-78
2022/02/21 06:32:25;;;;;;;1.48;0.70;;;;;;;;;;5083306;28;20064;-80
2022/02/21 06:34:52;;;;;;;2.55;0.90;;;;;;;;;;5085675;28;20105;-78
2022/02/21 06:37:19;;;;;;;4.20;0.88;;;;;;;;;;5083950;28;20051;-77
2022/02/21 06:39:46;;;;;;;3.72;0.80;;;;;;;;;;5086112;28;20044;-79
2022/02/21 06:42:14;;;;;;;3.35;1.02;;;;;;;;;;5085100;28;20052;-79
2022/02/21 06:44:41;;;;;;;3.45;0.80;;;;;;;;;;5086622;28;20044;-79
2022/02/21 06:47:08;;;;;;;2.35;0.77;;;;;;;;;;5087585;28;20056;-78
2022/02/21 06:49:35;;;;;;;2.20;1.33;;;;;;;;;;5089852;28;20052;-80
2022/02/21 06:52:02;;;;;;;3.30;0.98;;;;;;;;;;5090263;28;20052;-77
2022/02/21 06:54:28;;;;;;;2.67;0.73;;;;;;;;;;5091772;28;20028;-78
2022/02/21 06:56:55;;;;;;;2.42;1.15;;;;;;;;;;5090081;28;20531;-78
2022/02/21 06:59:23;;;;;;;2.97;0.90;;;;;;;;;;5088808;28;20045;-77
2022/02/21 07:01:50;;;;;;;3.65;0.80;;;;;;;;;;5087708;28;20074;-78
2022/02/21 07:04:17;;;;;;;3.28;1.00;;;;;;;;;;5086941;28;20079;-78
2022/02/21 07:06:46;;;;;;;3.85;1.10;;;;;;;;;;5086742;28;20052;-76
2022/02/21 07:09:14;;;;;;;4.28;0.90;;;;;;;;;;5091898;28;20048;-79
2022/02/21 07:11:41;;;;;;;3.75;1.10;;;;;;;;;;5091349;28;20044;-77
2022/02/21 07:14:07;;;;;;;1.92;0.80;;;;;;;;;;5090663;28;20079;-78
2022/02/21 07:16:36;;;;;;;4.65;0.90;;;;;;;;;;5088204;28;20070;-77
2022/02/21 07:19:02;;;;;;;2.17;0.98;;;;;;;;;;5087927;28;20070;-77
2022/02/21 07:21:29;;;;;;;3.83;1.00;;;;;;;;;;5087535;28;20070;-78
2022/02/21 07:23:56;;;;;;;3.67;1.10;;;;;;;;;;5088412;28;20188;-78
2022/02/21 07:26:23;;;;;;;3.42;1.15;;;;;;;;;;5086731;28;20070;-79
2022/02/21 07:28:50;;;;;;;4.13;1.15;;;;;;;;;;5087966;28;20067;-78
2022/02/21 07:31:17;;;;;;;2.22;0.85;;;;;;;;;;5086520;28;20049;-78
2022/02/21 07:33:46;;;;;;;2.92;1.00;;;;;;;;;;5083568;28;20131;-78
2022/02/21 07:36:12;;;;;;;4.45;1.10;;;;;;;;;;5085263;28;20102;-79
2022/02/21 07:38:39;;;;;;;3.75;1.02;;;;;;;;;;5086095;28;20045;-78
2022/02/21 07:41:06;;;;;;;2.83;0.85;;;;;;;;;;5086053;28;20044;-79
2022/02/21 07:43:33;;;;;;;5.47;1.50;;;;;;;;;;5084363;28;20098;-79
2022/02/21 07:46:00;;;;;;;4.72;1.10;;;;;;;;;;5084060;28;20048;-78
2022/02/21 07:48:30;;;;;;;1.92;0.80;;;;;;;;;;5083820;28;20086;-76
2022/02/21 07:50:58;;;;;;;3.00;0.90;;;;;;;;;;5087502;28;20045;-79
2022/02/21 07:53:25;;;;;;;3.00;1.20;;;;;;;;;;5095381;28;20048;-77
2022/02/21 07:55:52;;;;;;;5.32;1.00;;;;;;;;;;5100739;28;20040;-77
2022/02/21 07:58:19;;;;;;;5.43;2.05;;;;;;;;;;5100864;28;20032;-76
2022/02/21 08:00:46;;;;;;;6.22;1.25;;;;;;;;;;5096722;28;20049;-77
2022/02/21 08:03:12;;;;;;;2.03;0.70;;;;;;;;;;5080514;28;20064;-77
2022/02/21 08:05:39;;;;;;;4.70;1.02;;;;;;;;;;5080737;28;20101;-78
2022/02/21 08:08:08;;;;;;;4.82;1.35;;;;;;;;;;5079824;28;20044;-78
2022/02/21 08:10:35;;;;;;;5.30;1.10;;;;;;;;;;5082468;28;20052;-77
2022/02/21 08:13:02;;;;;;;3.53;1.17;;;;;;;;;;5079523;28;20052;-78
2022/02/21 08:15:29;;;;;;;3.08;0.95;;;;;;;;;;5082335;28;20497;-76
2022/02/21 08:17:56;;;;;;;4.70;0.98;;;;;;;;;;5081273;28;20048;-77
2022/02/21 08:20:25;;;;;;;4.28;1.30;;;;;;;;;;5079437;28;20094;-77
2022/02/21 08:22:53;;;;;;;3.15;1.00;;;;;;;;;;5084618;28;20488;-78
2022/02/21 08:25:21;;;;;;;6.45;1.00;;;;;;;;;;5085793;28;20103;-77
2022/02/21 08:27:48;;;;;;;4.45;1.08;;;;;;;;;;5083797;28;20090;-78
2022/02/21 08:30:17;;;;;;;5.18;1.08;;;;;;;;;;5083230;28;20125;-78
2022/02/21 08:32:44;;;;;;;2.28;0.65;;;;;;;;;;5081798;28;20117;-80
2022/02/21 08:35:12;;;;;;;5.03;1.33;;;;;;;;;;5082072;28;20052;-78
2022/02/21 08:37:39;;;;;;;3.50;0.90;;;;;;;;;;5085105;28;20044;-78
2022/02/21 08:40:08;;;;;;;3.35;0.82;;;;;;;;;;5082922;28;20094;-78
2022/02/21 08:42:37;;;;;;;3.83;0.73;;;;;;;;;;5082628;28;20056;-77
2022/02/21 08:45:04;;;;;;;3.83;1.10;;;;;;;;;;5081466;28;20424;-78
2022/02/21 08:47:31;;;;;;;3.35;1.02;;;;;;;;;;5081947;28;20053;-79
2022/02/21 08:49:57;;;;;;;3.60;1.35;;;;;;;;;;5091162;28;20059;-77
2022/02/21 08:52:24;;;;;;;2.65;0.93;;;;;;;;;;5094690;28;20251;-77
2022/02/21 08:54:51;;;;;;;3.28;0.85;;;;;;;;;;5082798;28;20056;-77
2022/02/21 08:57:18;;;;;;;3.42;1.27;;;;;;;;;;5077355;28;20482;-77
2022/02/21 08:59:46;;;;;;;5.75;1.30;;;;;;;;;;5076973;28;20561;-77
2022/02/21 09:02:14;;;;;;;2.35;0.90;;;;;;;;;;5077116;28;20484;-77
2022/02/21 09:04:42;;;;;;;4.30;0.98;;;;;;;;;;5075977;28;20044;-78
2022/02/21 09:07:09;;;;;;;4.53;1.00;;;;;;;;;;5078432;28;20044;-78
2022/02/21 09:09:35;;;;;;;2.70;1.30;;;;;;;;;;5075644;28;20045;-76
2022/02/21 09:12:03;;;;;;;8.02;1.25;;;;;;;;;;5082106;28;20040;-77
2022/02/21 09:14:30;;;;;;;4.28;1.08;;;;;;;;;;5076547;28;20514;-78
2022/02/21 09:16:58;;;;;;;3.85;1.30;;;;;;;;;;5075554;28;20049;-77
2022/02/21 09:19:27;;;;;;;4.00;1.02;;;;;;;;;;5076479;28;20056;-77
2022/02/21 09:21:54;;;;;;;3.33;1.05;;;;;;;;;;5080344;28;20076;-77
2022/02/21 09:24:21;;;;;;;4.80;1.23;;;;;;;;;;5083031;28;20122;-78
2022/02/21 09:26:48;;;;;;;4.90;1.50;;;;;;;;;;5083087;28;20059;-79
2022/02/21 09:29:16;;;;;;;4.43;1.20;;;;;;;;;;5082567;28;20049;-77
2022/02/21 09:31:43;;;;;;;5.38;1.13;;;;;;;;;;5083901;28;20048;-78
2022/02/21 09:34:11;;;;;;;6.32;1.10;;;;;;;;;;5083405;28;20052;-77
2022/02/21 09:36:38;;;;;;;5.55;1.38;;;;;;;;;;5081980;28;20491;-78
2022/02/21 09:39:05;;;;;;;3.63;0.95;;;;;;;;;;5083736;28;20052;-80
2022/02/21 09:41:32;;;;;;;3.63;0.98;;;;;;;;;;5084270;28;20076;-77
2022/02/21 09:43:59;;;;;;;3.70;0.90;;;;;;;;;;5082309;28;20045;-78
2022/02/21 09:46:30;;;;;;;4.28;1.33;;;;;;;;;;5084318;28;20044;-78
2022/02/21 09:48:58;;;;;;;4.40;1.40;;;;;;;;;;5081244;28;20488;-78
2022/02/21 09:51:27;;;;;;;4.80;1.30;;;;;;;;;;5082680;28;20048;-79
2022/02/21 09:53:54;;;;;;;7.95;1.73;;;;;;;;;;5083784;28;20072;-78
2022/02/21 09:56:21;;;;;;;3.92;1.15;;;;;;;;;;5080879;28;20048;-78
2022/02/21 09:58:54;;;;;;;6.43;1.50;;;;;;;;;;5080684;28;20056;-77
2022/02/21 10:01:23;;;;;;;3.42;1.20;;;;;;;;;;5082713;28;20048;-78
2022/02/21 10:03:51;;;;;;;5.03;1.15;;;;;;;;;;5078788;28;20076;-78
2022/02/21 10:06:20;;;;;;;4.55;1.05;;;;;;;;;;5080948;28;20072;-77
2022/02/21 10:09:09;;;;;;;2.75;1.00;;;;;;;;;;5080610;28;20044;-77
2022/02/21 10:11:37;;;;;;;3.05;1.17;;;;;;;;;;5078053;28;20072;-78
2022/02/21 10:14:05;;;;;;;4.88;1.30;;;;;;;;;;5078555;28;20136;-77
2022/02/21 10:16:41;;;;;;;5.18;1.55;;;;;;;;;;5078137;28;20052;-78
2022/02/21 10:19:13;;;;;;;9.13;1.50;;;;;;;;;;5080935;28;20078;-77
2022/02/21 10:21:54;;;;;;;5.38;1.20;;;;;;;;;;5079991;28;20048;-78
2022/02/21 10:24:22;;;;;;;5.63;1.30;;;;;;;;;;5083066;28;20108;-78
2022/02/21 10:26:49;;;;;;;8.48;1.95;;;;;;;;;;5081681;28;20052;-77
2022/02/21 10:29:17;;;;;;;4.40;1.15;;;;;;;;;;5080610;28;20040;-77
2022/02/21 10:31:45;;;;;;;7.53;1.17;;;;;;;;;;5080324;28;20484;-76
2022/02/21 10:34:12;;;;;;;3.92;1.17;;;;;;;;;;5080728;28;20132;-77
2022/02/21 10:36:41;;;;;;;4.88;1.00;;;;;;;;;;5085082;28;20071;-77
2022/02/21 10:39:11;;;;;;;5.05;1.30;;;;;;;;;;5095687;28;20056;-77
2022/02/21 10:41:46;;;;;;;2.65;0.90;;;;;;;;;;5095849;28;20184;-76
2022/02/21 10:44:19;;;;;;;5.30;2.00;;;;;;;;;;5086316;28;20072;-77
2022/02/21 10:47:03;;;;;;;6.18;1.63;;;;;;;;;;5082556;28;20470;-78
2022/02/21 10:49:32;;;;;;;2.90;0.98;;;;;;;;;;5082996;28;20044;-77
2022/02/21 10:51:59;;;;;;;5.30;1.10;;;;;;;;;;5082342;28;20048;-77
2022/02/21 10:54:30;;;;;;;5.03;1.10;;;;;;;;;;5084170;28;20052;-78
2022/02/21 10:56:58;;;;;;;4.30;1.27;;;;;;;;;;5083442;28;20147;-77
2022/02/21 10:59:30;;;;;;;3.65;0.93;;;;;;;;;;5081271;28;20048;-77
2022/02/21 11:01:57;;;;;;;5.90;1.17;;;;;;;;;;5081306;28;20067;-78
2022/02/21 11:04:25;;;;;;;3.88;1.10;;;;;;;;;;5081382;28;20075;-77
2022/02/21 11:06:53;;;;;;;6.43;1.05;;;;;;;;;;5081356;28;20040;-77
2022/02/21 11:09:21;;;;;;;4.95;0.90;;;;;;;;;;5080465;28;20048;-78
2022/02/21 11:11:49;;;;;;;5.97;1.88;;;;;;;;;;5080551;28;20052;-79
2022/02/21 11:14:22;;;;;;;5.60;0.90;;;;;;;;;;5079088;28;20450;-77
2022/02/21 11:16:50;;;;;;;4.07;1.10;;;;;;;;;;5079695;28;20048;-82
2022/02/21 11:19:18;;;;;;;6.85;1.38;;;;;;;;;;5076811;28;20411;-83
2022/02/21 11:21:47;;;;;;;7.70;1.20;;;;;;;;;;5075868;28;20544;-79
2022/02/21 11:24:15;;;;;;;4.75;1.67;;;;;;;;;;5076994;28;20070;-79
2022/02/21 11:26:54;;;;;;;8.20;1.77;;;;;;;;;;5086974;28;20415;-78
2022/02/21 11:29:28;;;;;;;5.15;1.13;;;;;;;;;;5078383;28;20098;-78
2022/02/21 11:31:55;;;;;;;6.22;1.33;;;;;;;;;;5078358;28;20052;-77
2022/02/21 11:34:22;;;;;;;5.03;1.35;;;;;;;;;;5079109;28;20557;-77
2022/02/21 11:36:57;;;;;;;6.82;1.75;;;;;;;;;;5080506;28;20064;-77
2022/02/21 11:39:26;;;;;;;2.72;0.82;;;;;;;;;;5080444;28;20044;-77
2022/02/21 11:42:06;;;;;;;4.55;1.38;;;;;;;;;;5077516;28;20115;-77
2022/02/21 11:44:50;;;;;;;4.85;1.95;;;;;;;;;;5092534;28;20052;-75
2022/02/21 11:47:35;;;;;;;7.47;1.17;;;;;;;;;;5081656;28;20057;-78
2022/02/21 11:50:03;;;;;;;4.75;0.85;;;;;;;;;;5072921;28;20056;-79
2022/02/21 11:52:32;;;;;;;4.72;1.15;;;;;;;;;;5072281;28;20072;-78
2022/02/21 11:54:59;;;;;;;6.53;1.08;;;;;;;;;;5077795;28;20041;-78
2022/02/21 11:57:36;;;;;;;4.97;1.00;;;;;;;;;;5078596;28;20548;-78
2022/02/21 12:00:38;;;;;;;4.75;1.30;;;;;;;;;;5076809;28;20040;-78
2022/02/21 12:03:11;;;;;;;5.00;1.42;;;;;;;;;;5070027;28;20052;-79
2022/02/21 12:05:38;;;;;;;2.63;1.20;;;;;;;;;;5077448;28;20052;-79
2022/02/21 12:08:20;;;;;;;6.00;1.30;;;;;;;;;;5071202;28;20053;-78
2022/02/21 12:11:15;;;;;;;5.10;1.42;;;;;;;;;;5069390;28;20087;-78
2022/02/21 12:14:30;;;;;;;3.25;0.98;;;;;;;;;;5071458;28;20054;-79
2022/02/21 12:17:15;;;;;;;3.60;1.10;;;;;;;;;;5008564;28;20050;-79
2022/02/21 12:19:43;;;;;;;6.78;1.25;;;;;;;;;;5009000;28;20512;-78
2022/02/21 12:22:19;;;;;;;2.45;0.90;;;;;;;;;;5043876;28;20052;-79
2022/02/21 12:25:10;;;;;;;6.10;1.35;;;;;;;;;;5070691;28;20098;-78
2022/02/21 12:27:37;;;;;;;7.00;1.50;;;;;;;;;;5070362;28;20086;-79
2022/02/21 12:30:04;;;;;;;8.57;1.63;;;;;;;;;;5071729;28;20048;-79
2022/02/21 12:32:31;;;;;;;6.63;1.45;;;;;;;;;;5071323;28;20044;-79
2022/02/21 12:35:14;;;;;;;5.68;1.10;;;;;;;;;;5072072;28;20478;-78
2022/02/21 12:37:41;;;;;;;6.88;1.58;;;;;;;;;;5071560;28;20136;-78
2022/02/21 12:40:11;;;;;;;6.50;1.63;;;;;;;;;;5075159;28;20520;-79
2022/02/21 12:42:38;;;;;;;5.43;1.85;;;;;;;;;;5074673;28;20102;-77
2022/02/21 12:45:06;;;;;;;9.18;1.48;;;;;;;;;;5075243;28;20044;-78
2022/02/21 12:47:32;;;;;;;6.55;1.30;;;;;;;;;;5073963;28;20055;-79
2022/02/21 12:49:59;;;;;;;8.02;1.52;;;;;;;;;;5074330;28;20044;-78
2022/02/21 12:52:28;;;;;;;6.13;1.83;;;;;;;;;;5074711;28;20550;-77
2022/02/21 12:54:57;;;;;;;4.82;1.17;;;;;;;;;;5073062;28;20055;-79
2022/02/21 12:57:25;;;;;;;4.90;1.70;;;;;;;;;;5073742;28;20059;-79
2022/02/21 12:59:53;;;;;;;4.07;1.20;;;;;;;;;;5074904;28;20041;-78
2022/02/21 13:02:21;;;;;;;5.88;1.23;;;;;;;;;;5074431;28;20040;-79
2022/02/21 13:04:49;;;;;;;5.65;1.27;;;;;;;;;;5074142;28;20036;-79
2022/02/21 13:07:19;;;;;;;3.63;1.25;;;;;;;;;;5073561;28;20049;-79
2022/02/21 13:09:48;;;;;;;4.85;1.20;;;;;;;;;;5073242;28;20068;-78
2022/02/21 13:12:18;;;;;;;7.72;1.33;;;;;;;;;;5071967;28;20400;-77
2022/02/21 13:14:45;;;;;;;6.55;1.30;;;;;;;;;;5073639;28;20561;-79
2022/02/21 13:17:14;;;;;;;6.63;1.15;;;;;;;;;;5073734;28;20045;-79
2022/02/21 13:19:42;;;;;;;6.63;1.10;;;;;;;;;;5074014;28;20064;-79
2022/02/21 13:22:11;;;;;;;5.22;1.02;;;;;;;;;;5073931;28;20044;-79
2022/02/21 13:24:41;;;;;;;8.48;1.48;;;;;;;;;;5073723;28;20041;-79
2022/02/21 13:27:20;;;;;;;6.30;1.67;;;;;;;;;;5073262;28;20602;-79
2022/02/21 13:29:47;;;;;;;4.65;1.30;;;;;;;;;;5071484;28;20312;-77
2022/02/21 13:32:26;;;;;;;8.68;1.50;;;;;;;;;;5073860;28;20044;-78
2022/02/21 13:34:55;;;;;;;5.78;1.17;;;;;;;;;;5071528;28;20128;-79
2022/02/21 13:37:24;;;;;;;4.28;0.95;;;;;;;;;;5073138;28;20051;-78
2022/02/21 13:39:54;;;;;;;7.82;1.50;;;;;;;;;;5074200;28;20110;-78
2022/02/21 13:42:34;;;;;;;8.70;1.83;;;;;;;;;;5073352;28;20052;-78
2022/02/21 13:45:22;;;;;;;3.70;1.05;;;;;;;;;;5073022;28;20049;-80
2022/02/21 13:48:04;;;;;;;7.60;2.42;;;;;;;;;;5071963;28;20076;-79
2022/02/21 13:50:53;;;;;;;5.82;1.30;;;;;;;;;;5071471;28;20064;-78
2022/02/21 13:53:34;;;;;;;6.05;1.10;;;;;;;;;;5072425;28;20059;-78
2022/02/21 13:56:03;;;;;;;5.43;1.02;;;;;;;;;;5072561;28;20560;-78
2022/02/21 13:58:32;;;;;;;6.00;1.50;;;;;;;;;;5072258;28;20098;-78
2022/02/21 14:01:14;;;;;;;5.05;1.30;;;;;;;;;;5072748;28;20052;-78
2022/02/21 14:03:45;;;;;;;6.32;1.30;;;;;;;;;;5072558;28;20496;-79
2022/02/21 14:06:12;;;;;;;3.55;1.15;;;;;;;;;;5073825;28;20052;-78
2022/02/21 14:08:45;;;;;;;6.47;1.92;;;;;;;;;;5074554;28;20055;-79
2022/02/21 14:11:13;;;;;;;6.00;1.95;;;;;;;;;;5071905;28;20535;-79
2022/02/21 14:13:43;;;;;;;5.70;1.20;;;;;;;;;;5072443;28;20522;-79
2022/02/21 14:16:10;;;;;;;4.63;1.10;;;;;;;;;;5072781;28;20048;-79
2022/02/21 14:18:39;;;;;;;5.55;1.17;;;;;;;;;;5072563;28;20078;-78
2022/02/21 14:21:07;;;;;;;4.45;1.10;;;;;;;;;;5072670;28;20048;-77
2022/02/21 14:23:34;;;;;;;5.50;1.60;;;;;;;;;;5072572;28;20045;-78
2022/02/21 14:26:01;;;;;;;6.07;1.20;;;;;;;;;;5072465;28;20056;-78
2022/02/21 14:28:28;;;;;;;4.68;1.25;;;;;;;;;;5080508;28;20048;-78
2022/02/21 14:30:56;;;;;;;6.32;1.80;;;;;;;;;;5094240;28;20044;-77
2022/02/21 14:33:23;;;;;;;4.70;1.50;;;;;;;;;;5094018;28;20044;-77
2022/02/21 14:35:50;;;;;;;5.88;1.23;;;;;;;;;;5093770;28;20048;-77
2022/02/21 14:38:19;;;;;;;5.60;1.67;;;;;;;;;;5093283;28;20052;-78
2022/02/21 14:40:46;;;;;;;7.45;1.25;;;;;;;;;;5090263;28;20071;-78
2022/02/21 14:43:13;;;;;;;6.78;1.30;;;;;;;;;;5078176;28;20099;-79
2022/02/21 14:45:41;;;;;;;4.13;1.00;;;;;;;;;;5072148;28;20056;-80
2022/02/21 14:48:10;;;;;;;6.60;1.98;;;;;;;;;;5071586;28;20503;-79
2022/02/21 14:50:37;;;;;;;3.80;1.00;;;;;;;;;;5072659;28;20155;-80
2022/02/21 14:53:04;;;;;;;7.38;1.17;;;;;;;;;;5073356;28;20052;-78